Time;durP1;ratioP1;P1;durP2;ratioP2;P2;SDS_P1;SDS_P2;PMS_P1;PMS_P2;Temp;Humidity;BMP_temperature;BMP_pressure;BME280_temperature;BME280_humidity;BME280_pressure;Samples;Min_cycle;Max_cycle;Signal;HPM_P1;HPM_P2
2022/03/30 00:22:41;;;;;;;10.70;7.85;;;;;;;;;;4200357;29;20008;-57
2022/03/30 00:25:08;;;;;;;12.63;8.05;;;;;;;;;;4150955;34;20534;-59
2022/03/30 00:27:35;;;;;;;12.25;7.60;;;;;;;;;;4150821;34;20107;-59
2022/03/30 00:30:01;;;;;;;14.13;8.50;;;;;;;;;;4150859;34;20527;-59
2022/03/30 00:32:27;;;;;;;13.80;7.80;;;;;;;;;;4150760;34;20147;-59
2022/03/30 00:34:53;;;;;;;10.60;7.93;;;;;;;;;;4150676;34;20455;-58
2022/03/30 00:37:19;;;;;;;11.77;7.70;;;;;;;;;;4150806;34;20109;-58
2022/03/30 00:39:45;;;;;;;15.10;8.48;;;;;;;;;;4150736;34;20131;-57
2022/03/30 00:42:18;;;;;;;12.15;8.10;;;;;;;;;;4150513;34;20186;-58
2022/03/30 00:44:46;;;;;;;12.02;7.97;;;;;;;;;;4150841;34;20115;-60
2022/03/30 00:47:30;;;;;;;12.60;8.38;;;;;;;;;;4150742;34;20190;-60
2022/03/30 00:49:56;;;;;;;13.32;8.07;;;;;;;;;;4150971;34;20111;-60
2022/03/30 00:52:22;;;;;;;12.43;8.30;;;;;;;;;;4149033;34;20206;-58
2022/03/30 00:54:50;;;;;;;18.85;8.77;;;;;;;;;;4150852;34;20557;-58
2022/03/30 00:57:19;;;;;;;11.68;8.07;;;;;;;;;;4150376;34;20537;-58
2022/03/30 00:59:45;;;;;;;14.50;8.10;;;;;;;;;;4150604;34;20220;-58
2022/03/30 01:02:11;;;;;;;13.60;8.50;;;;;;;;;;4150642;34;20135;-59
2022/03/30 01:04:38;;;;;;;16.75;8.30;;;;;;;;;;4144977;34;20488;-59
2022/03/30 01:07:04;;;;;;;11.68;8.30;;;;;;;;;;4150421;34;20186;-59
2022/03/30 01:09:30;;;;;;;11.88;7.90;;;;;;;;;;4150544;34;20153;-59
2022/03/30 01:11:56;;;;;;;15.20;8.60;;;;;;;;;;4150560;34;20137;-59
2022/03/30 01:14:23;;;;;;;15.48;8.63;;;;;;;;;;4150310;34;20142;-58
2022/03/30 01:16:49;;;;;;;14.85;8.13;;;;;;;;;;4150532;34;20111;-59
2022/03/30 01:19:15;;;;;;;13.30;8.90;;;;;;;;;;4150480;34;20110;-58
2022/03/30 01:21:42;;;;;;;13.65;8.80;;;;;;;;;;4150371;34;20099;-59
2022/03/30 01:24:10;;;;;;;10.55;8.40;;;;;;;;;;4150345;34;20614;-58
2022/03/30 01:26:36;;;;;;;13.68;8.43;;;;;;;;;;4150616;34;20126;-58
2022/03/30 01:32:25;;;;;;;12.27;8.20;;;;;;;;;;4150579;34;20092;-58
2022/03/30 01:34:37;;;;;;;14.87;8.15;;;;;;;;;;4150310;34;20231;-58
2022/03/30 01:37:05;;;;;;;15.05;8.38;;;;;;;;;;4150632;34;20131;-59
2022/03/30 01:39:31;;;;;;;13.30;8.02;;;;;;;;;;4150281;34;20094;-58
2022/03/30 01:41:57;;;;;;;13.43;8.63;;;;;;;;;;4150361;34;20175;-58
2022/03/30 01:44:24;;;;;;;12.27;9.40;;;;;;;;;;4150240;34;20115;-58
2022/03/30 01:46:51;;;;;;;12.82;8.52;;;;;;;;;;4150125;34;20115;-58
2022/03/30 01:49:21;;;;;;;17.52;9.10;;;;;;;;;;4150307;34;20126;-58
2022/03/30 01:51:54;;;;;;;12.88;8.70;;;;;;;;;;4150410;34;20135;-58
2022/03/30 01:54:23;;;;;;;14.68;8.98;;;;;;;;;;4150084;34;20193;-58
2022/03/30 01:56:50;;;;;;;12.02;8.57;;;;;;;;;;4150132;34;20129;-58
2022/03/30 01:59:16;;;;;;;15.45;8.80;;;;;;;;;;4150014;34;20103;-59
2022/03/30 02:01:42;;;;;;;13.60;8.93;;;;;;;;;;4150002;34;20193;-58
2022/03/30 02:04:09;;;;;;;13.77;8.50;;;;;;;;;;4150032;34;20182;-58
2022/03/30 02:06:36;;;;;;;15.57;9.38;;;;;;;;;;4149986;34;20099;-58
2022/03/30 02:09:02;;;;;;;11.93;7.55;;;;;;;;;;4149974;34;20239;-58
2022/03/30 02:11:28;;;;;;;13.05;8.50;;;;;;;;;;4150251;34;20107;-58
2022/03/30 02:13:55;;;;;;;15.90;9.30;;;;;;;;;;4149966;34;20608;-62
2022/03/30 02:16:21;;;;;;;14.50;9.25;;;;;;;;;;4149921;34;20179;-59
2022/03/30 02:18:47;;;;;;;14.35;8.48;;;;;;;;;;4150194;34;20122;-59
2022/03/30 02:21:15;;;;;;;16.05;11.88;;;;;;;;;;4149892;34;21032;-60
2022/03/30 02:23:42;;;;;;;12.90;9.95;;;;;;;;;;4149871;34;20119;-59
2022/03/30 02:26:08;;;;;;;16.55;9.95;;;;;;;;;;4150072;34;20177;-59
2022/03/30 02:28:34;;;;;;;21.55;10.18;;;;;;;;;;4150020;34;20167;-59
2022/03/30 02:31:00;;;;;;;16.10;9.02;;;;;;;;;;4149108;34;20111;-59
2022/03/30 02:33:27;;;;;;;11.55;8.20;;;;;;;;;;4150005;34;20118;-58
2022/03/30 02:35:53;;;;;;;14.25;8.82;;;;;;;;;;4149854;34;20215;-59
2022/03/30 02:38:19;;;;;;;10.05;8.52;;;;;;;;;;4149926;34;20170;-58
2022/03/30 02:40:46;;;;;;;13.62;8.43;;;;;;;;;;4149637;34;20106;-58
2022/03/30 02:43:16;;;;;;;12.32;9.35;;;;;;;;;;4149662;34;20551;-58
2022/03/30 02:45:43;;;;;;;14.80;8.40;;;;;;;;;;4149646;34;20527;-59
2022/03/30 02:48:18;;;;;;;11.70;8.50;;;;;;;;;;4149650;34;20099;-59
2022/03/30 02:50:53;;;;;;;11.88;8.73;;;;;;;;;;4149896;34;20131;-58
2022/03/30 02:53:19;;;;;;;15.13;8.60;;;;;;;;;;4149726;34;20130;-59
2022/03/30 02:55:45;;;;;;;12.95;9.02;;;;;;;;;;4149549;34;20546;-59
2022/03/30 02:58:12;;;;;;;13.88;8.98;;;;;;;;;;4149572;34;20135;-59
2022/03/30 03:00:39;;;;;;;13.93;7.87;;;;;;;;;;4149710;34;20099;-59
2022/03/30 03:03:06;;;;;;;12.18;7.90;;;;;;;;;;4149749;34;20402;-60
2022/03/30 03:05:32;;;;;;;11.38;8.20;;;;;;;;;;4149548;34;20547;-59
2022/03/30 03:07:59;;;;;;;12.20;7.53;;;;;;;;;;4149738;34;20110;-58
2022/03/30 03:10:25;;;;;;;11.73;7.97;;;;;;;;;;4149451;34;20087;-59
2022/03/30 03:12:52;;;;;;;13.60;7.45;;;;;;;;;;4149345;34;20202;-59
2022/03/30 03:15:18;;;;;;;10.18;8.02;;;;;;;;;;4147847;34;20614;-60
2022/03/30 03:17:44;;;;;;;17.95;8.57;;;;;;;;;;4149237;34;20174;-60
2022/03/30 03:20:13;;;;;;;13.57;7.82;;;;;;;;;;4149450;34;20202;-58
2022/03/30 03:22:39;;;;;;;12.27;8.40;;;;;;;;;;4149443;34;20100;-59
2022/03/30 03:25:06;;;;;;;11.15;8.20;;;;;;;;;;4149307;34;20098;-59
2022/03/30 03:27:32;;;;;;;13.98;8.70;;;;;;;;;;4149037;34;20577;-61
2022/03/30 03:29:59;;;;;;;11.70;8.77;;;;;;;;;;4149213;34;20546;-61
2022/03/30 03:32:25;;;;;;;12.63;9.43;;;;;;;;;;4148828;34;20125;-58
2022/03/30 03:34:51;;;;;;;13.62;8.35;;;;;;;;;;4149323;34;20183;-58
2022/03/30 03:37:17;;;;;;;12.23;8.30;;;;;;;;;;4136551;34;20137;-59
2022/03/30 03:39:43;;;;;;;16.98;11.90;;;;;;;;;;4149072;34;20129;-59
2022/03/30 03:42:09;;;;;;;18.62;10.65;;;;;;;;;;4150060;34;20763;-59
2022/03/30 03:44:35;;;;;;;12.73;9.45;;;;;;;;;;4151574;34;20098;-58
2022/03/30 03:47:02;;;;;;;12.98;8.93;;;;;;;;;;4151042;34;20119;-59
2022/03/30 03:49:28;;;;;;;10.70;7.97;;;;;;;;;;4138822;34;20115;-59
2022/03/30 03:51:54;;;;;;;12.10;7.68;;;;;;;;;;4151339;34;20176;-59
2022/03/30 03:54:20;;;;;;;11.63;7.90;;;;;;;;;;4151049;34;20443;-59
2022/03/30 03:56:46;;;;;;;10.70;8.32;;;;;;;;;;4150960;34;20111;-60
2022/03/30 03:59:12;;;;;;;12.98;8.73;;;;;;;;;;4151092;34;20111;-59
2022/03/30 04:01:38;;;;;;;10.20;8.02;;;;;;;;;;4138647;34;20099;-58
2022/03/30 04:04:05;;;;;;;11.12;7.72;;;;;;;;;;4151046;34;20107;-57
2022/03/30 04:06:31;;;;;;;10.98;8.18;;;;;;;;;;4150866;34;20194;-59
2022/03/30 04:08:57;;;;;;;10.57;7.75;;;;;;;;;;4150988;34;20106;-58
2022/03/30 04:11:23;;;;;;;10.57;7.72;;;;;;;;;;4151112;34;20600;-61
2022/03/30 04:13:52;;;;;;;13.95;7.95;;;;;;;;;;4150818;34;20126;-58
2022/03/30 04:16:18;;;;;;;11.80;8.38;;;;;;;;;;4151152;34;20126;-60
2022/03/30 04:18:44;;;;;;;9.77;7.55;;;;;;;;;;4150969;34;20110;-58
2022/03/30 04:21:11;;;;;;;10.05;7.43;;;;;;;;;;4136678;34;20356;-59
2022/03/30 04:23:37;;;;;;;9.13;7.40;;;;;;;;;;4124021;34;20106;-57
2022/03/30 04:26:03;;;;;;;8.23;7.37;;;;;;;;;;4123460;34;20140;-59
2022/03/30 04:28:29;;;;;;;8.07;7.20;;;;;;;;;;4122738;34;20214;-58
2022/03/30 04:30:56;;;;;;;7.87;6.95;;;;;;;;;;4111692;34;20199;-58
2022/03/30 04:33:22;;;;;;;7.80;6.82;;;;;;;;;;4123859;34;20501;-58
2022/03/30 04:35:48;;;;;;;8.48;6.75;;;;;;;;;;4123913;34;20528;-58
2022/03/30 04:38:14;;;;;;;9.80;6.85;;;;;;;;;;4123930;34;20115;-62
2022/03/30 04:40:41;;;;;;;7.57;6.65;;;;;;;;;;4111319;34;20548;-62
2022/03/30 04:43:07;;;;;;;9.98;6.20;;;;;;;;;;4111413;34;20131;-62
2022/03/30 04:45:33;;;;;;;9.98;7.32;;;;;;;;;;4123960;34;20140;-62
2022/03/30 04:47:59;;;;;;;11.00;7.40;;;;;;;;;;4123832;34;20091;-62
2022/03/30 04:50:26;;;;;;;9.38;6.90;;;;;;;;;;4123708;34;20106;-62
2022/03/30 04:52:52;;;;;;;8.00;6.80;;;;;;;;;;4123652;34;20531;-62
2022/03/30 04:55:19;;;;;;;6.93;6.15;;;;;;;;;;4123382;34;20127;-62
2022/03/30 04:57:46;;;;;;;6.62;5.95;;;;;;;;;;4111298;34;20118;-62
2022/03/30 05:00:12;;;;;;;6.55;5.80;;;;;;;;;;4111450;34;20108;-62
2022/03/30 05:02:40;;;;;;;5.35;4.85;;;;;;;;;;4123841;34;20132;-62
2022/03/30 05:05:08;;;;;;;5.45;4.95;;;;;;;;;;4111394;34;20115;-62
2022/03/30 05:07:34;;;;;;;5.60;4.70;;;;;;;;;;4123797;34;20516;-61
2022/03/30 05:10:00;;;;;;;5.68;4.30;;;;;;;;;;4123781;34;20119;-60
2022/03/30 05:12:26;;;;;;;7.93;5.05;;;;;;;;;;4110988;34;20148;-60
2022/03/30 05:14:52;;;;;;;4.82;4.43;;;;;;;;;;4125187;34;20131;-59
2022/03/30 05:17:18;;;;;;;5.65;4.53;;;;;;;;;;4136521;34;20190;-61
2022/03/30 05:19:44;;;;;;;5.43;4.20;;;;;;;;;;4136722;34;20546;-60
2022/03/30 05:22:11;;;;;;;6.03;4.50;;;;;;;;;;4136659;34;20135;-61
2022/03/30 05:24:37;;;;;;;5.40;4.40;;;;;;;;;;4131200;34;20299;-60
2022/03/30 05:27:03;;;;;;;4.43;4.03;;;;;;;;;;4124482;34;20139;-61
2022/03/30 05:29:30;;;;;;;4.45;4.05;;;;;;;;;;4136830;34;20495;-59
2022/03/30 05:31:56;;;;;;;4.60;4.20;;;;;;;;;;4136514;34;20711;-61
2022/03/30 05:34:24;;;;;;;4.80;4.30;;;;;;;;;;4124365;34;20107;-60
2022/03/30 05:36:50;;;;;;;8.68;4.80;;;;;;;;;;4136782;34;20562;-59
2022/03/30 05:39:16;;;;;;;6.37;4.97;;;;;;;;;;4135367;34;20084;-60
2022/03/30 05:41:42;;;;;;;4.97;4.47;;;;;;;;;;4136712;34;20092;-60
2022/03/30 05:44:08;;;;;;;5.00;4.45;;;;;;;;;;4136669;34;20550;-59
2022/03/30 05:46:36;;;;;;;5.93;4.93;;;;;;;;;;4136510;34;20102;-60
2022/03/30 05:49:06;;;;;;;5.60;4.90;;;;;;;;;;4135508;34;20119;-59
2022/03/30 05:51:32;;;;;;;5.12;4.65;;;;;;;;;;4136207;34;20120;-58
2022/03/30 05:53:59;;;;;;;5.60;5.07;;;;;;;;;;4136539;34;20119;-58
2022/03/30 05:59:11;;;;;;;5.30;4.78;;;;;;;;;;4136657;34;20183;-59
2022/03/30 06:01:38;;;;;;;4.90;4.40;;;;;;;;;;4124306;34;20107;-58
2022/03/30 06:04:04;;;;;;;5.50;4.93;;;;;;;;;;4135249;34;20091;-60
2022/03/30 06:06:30;;;;;;;6.32;5.68;;;;;;;;;;4135596;34;20115;-59
2022/03/30 06:08:56;;;;;;;6.78;5.50;;;;;;;;;;4136506;34;20131;-59
2022/03/30 06:11:22;;;;;;;6.70;5.70;;;;;;;;;;4136352;34;20184;-59
2022/03/30 06:13:48;;;;;;;5.93;4.93;;;;;;;;;;4136539;34;20119;-61
2022/03/30 06:16:15;;;;;;;6.40;5.70;;;;;;;;;;4136273;34;20111;-61
2022/03/30 06:18:43;;;;;;;6.78;5.87;;;;;;;;;;4123929;34;20124;-62
2022/03/30 06:21:10;;;;;;;8.32;6.07;;;;;;;;;;4123931;34;20530;-67
2022/03/30 06:23:36;;;;;;;8.55;5.55;;;;;;;;;;4124125;34;20142;-65
2022/03/30 06:26:03;;;;;;;8.00;6.32;;;;;;;;;;4112956;34;20107;-65
2022/03/30 06:28:29;;;;;;;6.78;6.07;;;;;;;;;;4134969;34;20216;-63
2022/03/30 06:30:56;;;;;;;6.93;5.75;;;;;;;;;;4136421;34;20096;-65
2022/03/30 06:33:22;;;;;;;7.15;5.97;;;;;;;;;;4136198;34;20103;-62
2022/03/30 06:35:48;;;;;;;6.82;5.57;;;;;;;;;;4123672;34;20099;-65
2022/03/30 06:38:15;;;;;;;6.03;5.37;;;;;;;;;;4134908;34;20116;-65
2022/03/30 06:40:41;;;;;;;9.20;6.32;;;;;;;;;;4112660;34;20126;-64
2022/03/30 06:43:06;;;;;;;6.10;5.20;;;;;;;;;;4136252;34;20135;-61
2022/03/30 06:45:32;;;;;;;7.03;5.37;;;;;;;;;;4136231;34;20429;-62
2022/03/30 06:47:58;;;;;;;7.28;5.50;;;;;;;;;;4136256;34;20115;-62
2022/03/30 06:50:24;;;;;;;8.40;6.15;;;;;;;;;;4135940;34;20134;-62
2022/03/30 06:52:50;;;;;;;7.82;6.28;;;;;;;;;;4136058;34;20231;-58
2022/03/30 06:55:16;;;;;;;8.38;7.00;;;;;;;;;;4135988;34;20207;-60
2022/03/30 06:57:42;;;;;;;8.15;7.10;;;;;;;;;;4136355;34;20118;-60
2022/03/30 07:00:12;;;;;;;8.93;6.93;;;;;;;;;;4136013;34;20124;-58
2022/03/30 07:02:38;;;;;;;8.70;7.80;;;;;;;;;;4134455;34;20190;-58
2022/03/30 07:05:05;;;;;;;10.93;7.62;;;;;;;;;;4134789;34;20099;-62
2022/03/30 07:10:15;;;;;;;11.23;8.63;;;;;;;;;;4122218;34;20205;-60
2022/03/30 07:12:43;;;;;;;11.95;8.85;;;;;;;;;;4128450;34;20142;-59
2022/03/30 07:15:09;;;;;;;13.07;8.55;;;;;;;;;;4134129;34;20119;-60
2022/03/30 07:17:43;;;;;;;10.20;6.95;;;;;;;;;;4136818;34;20597;-60
2022/03/30 07:20:10;;;;;;;8.32;7.40;;;;;;;;;;4125404;34;20103;-59
2022/03/30 07:22:36;;;;;;;10.95;7.55;;;;;;;;;;4126174;34;20116;-59
2022/03/30 07:25:03;;;;;;;11.23;7.30;;;;;;;;;;4124135;34;20196;-59
2022/03/30 07:27:30;;;;;;;9.20;7.35;;;;;;;;;;4122937;34;20232;-59
2022/03/30 07:29:56;;;;;;;16.30;7.80;;;;;;;;;;4124382;34;20769;-62
2022/03/30 07:32:23;;;;;;;14.20;7.18;;;;;;;;;;4124749;34;20115;-62
2022/03/30 07:34:52;;;;;;;13.40;7.87;;;;;;;;;;4124406;34;20116;-59
2022/03/30 07:37:18;;;;;;;13.02;7.72;;;;;;;;;;4124215;34;20092;-65
2022/03/30 07:39:44;;;;;;;12.18;7.07;;;;;;;;;;4124407;34;20118;-62
2022/03/30 07:42:10;;;;;;;10.52;6.93;;;;;;;;;;4124319;34;20509;-59
2022/03/30 07:44:36;;;;;;;10.40;6.50;;;;;;;;;;4124394;34;20107;-60
2022/03/30 07:47:04;;;;;;;11.82;7.15;;;;;;;;;;4124354;34;20195;-66
2022/03/30 07:49:31;;;;;;;9.63;7.00;;;;;;;;;;4124470;34;20100;-57
2022/03/30 07:51:58;;;;;;;11.30;7.55;;;;;;;;;;4124091;34;20400;-61
2022/03/30 07:54:23;;;;;;;10.63;7.40;;;;;;;;;;4124262;34;20211;-60
2022/03/30 07:56:49;;;;;;;14.10;8.40;;;;;;;;;;4124288;34;20149;-59
2022/03/30 07:59:15;;;;;;;10.82;6.20;;;;;;;;;;4124386;34;20107;-57
2022/03/30 08:01:41;;;;;;;13.68;7.65;;;;;;;;;;4123437;34;20103;-62
2022/03/30 08:04:08;;;;;;;11.00;6.70;;;;;;;;;;4122279;34;20123;-60
2022/03/30 08:06:34;;;;;;;11.00;7.55;;;;;;;;;;4123748;34;20111;-61
2022/03/30 08:09:00;;;;;;;11.40;7.80;;;;;;;;;;4123843;34;20516;-60
2022/03/30 08:11:26;;;;;;;12.95;7.82;;;;;;;;;;4123922;34;20187;-61
2022/03/30 08:13:52;;;;;;;13.48;7.62;;;;;;;;;;4124070;34;20592;-60
2022/03/30 08:16:18;;;;;;;14.25;7.78;;;;;;;;;;4123945;34;20103;-60
2022/03/30 08:18:44;;;;;;;12.88;7.55;;;;;;;;;;4133351;34;20109;-60
2022/03/30 08:23:55;;;;;;;12.07;6.62;;;;;;;;;;4136753;34;20112;-61
2022/03/30 08:26:21;;;;;;;13.55;7.80;;;;;;;;;;4113482;34;20135;-59
2022/03/30 08:28:47;;;;;;;13.52;7.62;;;;;;;;;;4136760;34;20126;-58
2022/03/30 08:31:13;;;;;;;11.43;7.03;;;;;;;;;;4135839;34;20099;-61
2022/03/30 08:33:39;;;;;;;10.13;6.55;;;;;;;;;;4137292;34;20120;-61
2022/03/30 08:36:07;;;;;;;15.68;7.32;;;;;;;;;;4137269;34;20099;-58
2022/03/30 08:38:33;;;;;;;10.40;7.32;;;;;;;;;;4137311;34;20220;-60
2022/03/30 08:41:00;;;;;;;10.38;6.85;;;;;;;;;;4137181;34;20119;-63
2022/03/30 08:43:27;;;;;;;12.45;7.15;;;;;;;;;;4137149;34;20155;-61
2022/03/30 08:45:59;;;;;;;9.43;6.65;;;;;;;;;;4137123;34;20107;-63
2022/03/30 08:48:25;;;;;;;10.05;6.47;;;;;;;;;;4136037;34;20121;-61
2022/03/30 08:50:52;;;;;;;13.43;6.50;;;;;;;;;;4137067;34;20160;-61
2022/03/30 08:53:19;;;;;;;13.95;7.45;;;;;;;;;;4137025;34;20206;-60
2022/03/30 08:55:46;;;;;;;13.68;6.75;;;;;;;;;;4137035;34;20127;-61
2022/03/30 08:58:13;;;;;;;17.67;6.97;;;;;;;;;;4137259;34;20118;-61
2022/03/30 09:00:39;;;;;;;7.87;5.97;;;;;;;;;;4137190;34;20452;-60
2022/03/30 09:03:07;;;;;;;11.05;6.45;;;;;;;;;;4137107;34;20124;-62
2022/03/30 09:05:37;;;;;;;12.55;6.97;;;;;;;;;;4136954;34;20445;-62
2022/03/30 09:08:14;;;;;;;13.52;6.43;;;;;;;;;;4137233;34;20129;-62
2022/03/30 09:10:45;;;;;;;9.43;6.00;;;;;;;;;;4137324;34;20103;-61
2022/03/30 09:13:14;;;;;;;10.02;6.82;;;;;;;;;;4137037;34;20130;-62
2022/03/30 09:15:40;;;;;;;8.77;6.43;;;;;;;;;;4136888;34;20513;-62
2022/03/30 09:18:09;;;;;;;9.80;6.37;;;;;;;;;;4136892;34;20102;-62
2022/03/30 09:20:37;;;;;;;14.87;6.45;;;;;;;;;;4124426;34;20158;-62
2022/03/30 09:23:04;;;;;;;13.70;6.93;;;;;;;;;;4136850;34;20627;-62
2022/03/30 09:25:31;;;;;;;10.80;6.45;;;;;;;;;;4136745;34;20122;-61
2022/03/30 09:27:58;;;;;;;14.23;6.15;;;;;;;;;;4136894;34;20119;-62
2022/03/30 09:30:25;;;;;;;8.63;6.03;;;;;;;;;;4136906;34;20107;-61
2022/03/30 09:32:54;;;;;;;11.85;6.32;;;;;;;;;;4135310;34;20212;-61
2022/03/30 09:35:24;;;;;;;10.90;6.80;;;;;;;;;;4124150;34;20127;-61
2022/03/30 09:38:00;;;;;;;12.50;6.53;;;;;;;;;;4136674;34;20114;-61
2022/03/30 09:40:38;;;;;;;8.68;6.75;;;;;;;;;;4136444;34;20528;-61
2022/03/30 09:43:27;;;;;;;11.18;6.60;;;;;;;;;;4136803;34;20110;-61
2022/03/30 09:46:03;;;;;;;11.00;8.32;;;;;;;;;;4135300;34;20199;-61
2022/03/30 09:48:30;;;;;;;;;;;;;;;;;;4137159;34;20127;-60
2022/03/30 09:50:58;;;;;;;11.02;6.70;;;;;;;;;;4135408;34;19967;-61
2022/03/30 09:53:26;;;;;;;9.77;6.60;;;;;;;;;;4124152;34;20150;-63
2022/03/30 09:55:58;;;;;;;9.65;6.62;;;;;;;;;;4135426;34;20119;-61
2022/03/30 09:58:27;;;;;;;11.68;6.70;;;;;;;;;;4136648;34;20135;-61
2022/03/30 10:01:08;;;;;;;11.40;6.47;;;;;;;;;;4124000;34;20119;-61
2022/03/30 10:03:44;;;;;;;11.23;6.62;;;;;;;;;;4136810;34;20145;-62
2022/03/30 10:06:12;;;;;;;11.20;6.37;;;;;;;;;;4123923;34;20588;-61
2022/03/30 10:08:42;;;;;;;7.97;6.57;;;;;;;;;;4136506;34;20504;-60
2022/03/30 10:11:10;;;;;;;10.02;6.30;;;;;;;;;;4136485;34;20096;-61
2022/03/30 10:13:37;;;;;;;7.00;6.10;;;;;;;;;;4136426;34;20129;-60
2022/03/30 10:16:05;;;;;;;8.55;6.80;;;;;;;;;;4136320;34;20170;-60
2022/03/30 10:18:32;;;;;;;8.65;7.20;;;;;;;;;;4136366;34;20204;-59
2022/03/30 10:21:39;;;;;;;8.20;7.12;;;;;;;;;;4136185;34;20119;-59
2022/03/30 10:24:15;;;;;;;8.07;6.95;;;;;;;;;;4112980;34;20123;-59
2022/03/30 10:27:00;;;;;;;8.35;6.57;;;;;;;;;;4123839;34;20127;-59
2022/03/30 10:29:28;;;;;;;8.73;7.12;;;;;;;;;;4134916;34;20573;-59
2022/03/30 10:32:14;;;;;;;9.15;6.78;;;;;;;;;;4123944;34;20216;-60
2022/03/30 10:34:49;;;;;;;9.73;6.87;;;;;;;;;;4136311;34;20111;-59
2022/03/30 10:37:34;;;;;;;7.82;6.78;;;;;;;;;;4136024;34;20122;-59
2022/03/30 10:40:03;;;;;;;8.10;7.05;;;;;;;;;;4136255;34;20098;-60
2022/03/30 10:42:56;;;;;;;8.65;7.05;;;;;;;;;;4136262;34;20863;-59
2022/03/30 10:45:30;;;;;;;12.23;7.28;;;;;;;;;;4136129;34;20526;-60
2022/03/30 10:48:43;;;;;;;9.38;7.10;;;;;;;;;;4136187;34;20103;-59
2022/03/30 10:51:14;;;;;;;9.13;7.32;;;;;;;;;;4135765;34;20102;-60
2022/03/30 10:53:49;;;;;;;7.78;6.65;;;;;;;;;;4135941;34;20111;-62
2022/03/30 10:56:15;;;;;;;10.05;7.22;;;;;;;;;;4123885;34;20103;-61
2022/03/30 10:58:53;;;;;;;10.77;7.18;;;;;;;;;;4136138;34;20122;-60
2022/03/30 11:01:25;;;;;;;10.20;8.25;;;;;;;;;;4135840;34;20175;-61
2022/03/30 11:04:18;;;;;;;9.75;7.55;;;;;;;;;;4136092;34;20107;-60
2022/03/30 11:06:46;;;;;;;7.35;6.55;;;;;;;;;;4135787;34;20122;-58
2022/03/30 11:09:15;;;;;;;7.43;6.28;;;;;;;;;;4135975;34;20107;-60
2022/03/30 11:11:44;;;;;;;6.93;5.25;;;;;;;;;;4136106;34;20216;-61
2022/03/30 11:14:39;;;;;;;7.45;5.60;;;;;;;;;;4135886;34;20505;-60
2022/03/30 11:17:07;;;;;;;7.57;6.10;;;;;;;;;;4135810;34;20119;-61
2022/03/30 11:19:48;;;;;;;7.45;5.60;;;;;;;;;;4123284;34;20518;-62
2022/03/30 11:22:28;;;;;;;7.53;6.12;;;;;;;;;;4135743;34;20198;-58
2022/03/30 11:25:07;;;;;;;6.90;5.95;;;;;;;;;;4135796;34;20131;-59
2022/03/30 11:27:34;;;;;;;6.68;5.55;;;;;;;;;;4133956;34;20508;-57
2022/03/30 11:30:03;;;;;;;10.18;6.03;;;;;;;;;;4134955;34;20525;-57
2022/03/30 11:32:34;;;;;;;7.03;5.85;;;;;;;;;;4134929;34;20104;-58
2022/03/30 11:35:01;;;;;;;7.53;5.82;;;;;;;;;;4123190;34;20107;-57
2022/03/30 11:37:39;;;;;;;8.27;5.55;;;;;;;;;;4135089;34;20624;-57
2022/03/30 11:40:09;;;;;;;6.07;5.00;;;;;;;;;;4134486;34;20114;-61
2022/03/30 11:42:37;;;;;;;6.18;4.95;;;;;;;;;;4134333;34;20135;-58
2022/03/30 11:45:13;;;;;;;7.43;4.78;;;;;;;;;;4122143;34;20100;-59
2022/03/30 11:47:41;;;;;;;5.53;4.47;;;;;;;;;;4121682;34;20131;-62
2022/03/30 11:50:08;;;;;;;6.53;5.07;;;;;;;;;;4122178;34;20123;-60
2022/03/30 11:52:34;;;;;;;6.28;5.00;;;;;;;;;;4132275;34;20127;-61
2022/03/30 11:55:00;;;;;;;10.52;5.57;;;;;;;;;;4135660;34;20119;-64
2022/03/30 11:57:26;;;;;;;6.12;4.50;;;;;;;;;;4134984;34;20126;-57
2022/03/30 12:00:00;;;;;;;5.68;4.37;;;;;;;;;;4135304;34;20231;-65
2022/03/30 12:02:27;;;;;;;6.25;4.70;;;;;;;;;;4133753;34;20155;-64
2022/03/30 12:04:55;;;;;;;7.07;3.72;;;;;;;;;;4136803;34;20107;-61
2022/03/30 12:07:21;;;;;;;7.55;4.18;;;;;;;;;;4137222;34;20154;-60
2022/03/30 12:09:56;;;;;;;9.77;4.40;;;;;;;;;;4137025;34;20524;-61
2022/03/30 12:12:37;;;;;;;4.70;3.92;;;;;;;;;;4137438;34;20136;-61
2022/03/30 12:15:06;;;;;;;5.05;3.92;;;;;;;;;;4137763;34;20135;-62
2022/03/30 12:17:33;;;;;;;6.07;4.05;;;;;;;;;;4136377;34;20202;-62
2022/03/30 12:20:00;;;;;;;5.93;4.45;;;;;;;;;;4124065;34;20099;-63
2022/03/30 12:22:26;;;;;;;5.82;4.60;;;;;;;;;;4123610;34;20281;-62
2022/03/30 12:24:52;;;;;;;6.18;4.60;;;;;;;;;;4124018;34;20128;-63
2022/03/30 12:27:18;;;;;;;8.00;5.03;;;;;;;;;;4123908;34;20235;-62
2022/03/30 12:29:45;;;;;;;6.25;4.90;;;;;;;;;;4123748;34;20127;-62
2022/03/30 12:32:15;;;;;;;5.57;3.97;;;;;;;;;;4123877;34;20096;-62
2022/03/30 12:34:42;;;;;;;4.80;4.22;;;;;;;;;;4111191;34;20108;-62
2022/03/30 12:37:10;;;;;;;7.65;4.80;;;;;;;;;;4124182;34;20198;-62
2022/03/30 12:39:41;;;;;;;5.43;4.10;;;;;;;;;;4123489;34;20127;-61
2022/03/30 12:42:11;;;;;;;4.03;3.62;;;;;;;;;;4123851;34;20117;-62
2022/03/30 12:44:42;;;;;;;5.78;3.53;;;;;;;;;;4123375;34;20608;-62
2022/03/30 12:47:29;;;;;;;5.43;4.80;;;;;;;;;;4123857;34;20119;-62
2022/03/30 12:49:56;;;;;;;7.18;5.47;;;;;;;;;;4123736;34;20191;-62
2022/03/30 12:52:32;;;;;;;5.35;4.50;;;;;;;;;;4121810;34;20506;-63
2022/03/30 12:55:32;;;;;;;10.90;8.02;;;;;;;;;;4136925;34;20204;-63
2022/03/30 12:57:59;;;;;;;3.60;2.90;;;;;;;;;;4113786;34;20115;-62
2022/03/30 13:00:38;;;;;;;4.60;3.58;;;;;;;;;;4135696;34;20473;-61
2022/03/30 13:03:15;;;;;;;4.18;3.05;;;;;;;;;;4136665;34;20634;-62
2022/03/30 13:05:43;;;;;;;4.55;2.90;;;;;;;;;;4136799;34;20127;-61
2022/03/30 13:08:10;;;;;;;4.25;3.45;;;;;;;;;;4124357;34;20465;-62
2022/03/30 13:10:53;;;;;;;8.82;3.53;;;;;;;;;;4136808;34;20182;-62
2022/03/30 13:13:24;;;;;;;3.03;2.72;;;;;;;;;;4136246;34;20247;-64
2022/03/30 13:15:51;;;;;;;2.50;2.22;;;;;;;;;;4136371;34;20129;-63
2022/03/30 13:18:19;;;;;;;5.37;3.28;;;;;;;;;;4132065;34;20090;-64
2022/03/30 13:21:16;;;;;;;3.00;2.62;;;;;;;;;;4122005;34;20131;-63
2022/03/30 13:23:47;;;;;;;3.10;2.60;;;;;;;;;;4122834;34;20107;-62
2022/03/30 13:26:31;;;;;;;3.40;2.87;;;;;;;;;;4123545;34;20219;-61
2022/03/30 13:28:58;;;;;;;3.17;2.80;;;;;;;;;;4110758;34;20126;-62
2022/03/30 13:31:24;;;;;;;4.03;3.37;;;;;;;;;;4123481;34;20142;-62
2022/03/30 13:33:52;;;;;;;5.22;3.90;;;;;;;;;;4121533;34;20135;-61
2022/03/30 13:36:18;;;;;;;6.15;4.60;;;;;;;;;;4123327;34;20159;-61
2022/03/30 13:38:46;;;;;;;6.55;4.07;;;;;;;;;;4123140;34;20508;-60
2022/03/30 13:41:12;;;;;;;6.72;4.97;;;;;;;;;;4111131;34;20104;-61
2022/03/30 13:43:39;;;;;;;7.20;5.60;;;;;;;;;;4111084;34;20104;-62
2022/03/30 13:46:05;;;;;;;11.15;5.53;;;;;;;;;;4123010;34;20548;-62
2022/03/30 13:48:31;;;;;;;6.40;5.12;;;;;;;;;;4123118;34;20127;-63
2022/03/30 13:51:00;;;;;;;6.60;4.80;;;;;;;;;;4121876;34;20115;-62
2022/03/30 13:53:27;;;;;;;8.95;5.12;;;;;;;;;;4120898;34;20111;-62
2022/03/30 13:55:53;;;;;;;5.80;5.20;;;;;;;;;;4146371;34;20111;-61
2022/03/30 13:58:19;;;;;;;7.07;5.53;;;;;;;;;;4136346;34;20100;-61
2022/03/30 14:00:45;;;;;;;8.07;5.37;;;;;;;;;;4136532;34;20202;-62
2022/03/30 14:03:11;;;;;;;8.13;6.05;;;;;;;;;;4136599;34;20120;-62
2022/03/30 14:05:37;;;;;;;6.50;5.55;;;;;;;;;;4136684;34;20123;-60
2022/03/30 14:08:04;;;;;;;6.43;5.37;;;;;;;;;;4136135;34;20115;-61
2022/03/30 14:10:30;;;;;;;7.72;5.25;;;;;;;;;;4136363;34;20190;-61
2022/03/30 14:12:56;;;;;;;7.12;5.43;;;;;;;;;;4135034;34;20449;-62
2022/03/30 14:15:22;;;;;;;5.70;4.00;;;;;;;;;;4135404;34;20442;-61
2022/03/30 14:17:49;;;;;;;4.00;3.60;;;;;;;;;;4136303;34;20540;-61
2022/03/30 14:20:16;;;;;;;4.78;3.72;;;;;;;;;;4136342;34;20167;-59
2022/03/30 14:22:44;;;;;;;4.62;3.95;;;;;;;;;;4123764;34;20453;-60
2022/03/30 14:25:14;;;;;;;5.55;4.03;;;;;;;;;;4136336;34;20139;-61
2022/03/30 14:27:41;;;;;;;5.25;4.10;;;;;;;;;;4123454;34;20127;-62
2022/03/30 14:30:08;;;;;;;6.60;4.22;;;;;;;;;;4136364;34;20448;-61
2022/03/30 14:32:35;;;;;;;5.55;3.45;;;;;;;;;;4136361;34;20138;-59
2022/03/30 14:35:02;;;;;;;4.82;4.10;;;;;;;;;;4136266;34;20108;-60
2022/03/30 14:37:30;;;;;;;6.72;4.28;;;;;;;;;;4123905;34;20100;-63
2022/03/30 14:39:56;;;;;;;4.57;3.90;;;;;;;;;;4136314;34;20508;-60
2022/03/30 14:42:23;;;;;;;4.50;4.00;;;;;;;;;;4136250;34;20104;-63
2022/03/30 14:44:49;;;;;;;4.28;3.87;;;;;;;;;;4134803;34;20111;-62
2022/03/30 14:47:15;;;;;;;5.37;3.58;;;;;;;;;;4136491;34;20580;-62
2022/03/30 14:49:41;;;;;;;5.45;4.50;;;;;;;;;;4134961;34;20115;-60
2022/03/30 14:52:09;;;;;;;5.22;4.20;;;;;;;;;;4136350;34;20114;-61
2022/03/30 14:54:35;;;;;;;6.28;5.35;;;;;;;;;;4123750;34;20143;-63
2022/03/30 14:57:02;;;;;;;6.28;5.35;;;;;;;;;;4136151;34;20547;-62
2022/03/30 14:59:28;;;;;;;6.53;5.57;;;;;;;;;;4134876;34;20125;-62
2022/03/30 15:01:54;;;;;;;6.70;5.37;;;;;;;;;;4136312;34;20119;-60
2022/03/30 15:04:20;;;;;;;8.70;6.70;;;;;;;;;;4135974;34;20146;-65
2022/03/30 15:06:46;;;;;;;13.07;7.40;;;;;;;;;;4136053;34;20104;-68
2022/03/30 15:09:12;;;;;;;16.90;7.95;;;;;;;;;;4123526;34;20105;-63
2022/03/30 15:11:38;;;;;;;14.07;7.97;;;;;;;;;;4136008;34;20108;-63
2022/03/30 15:14:05;;;;;;;8.20;6.32;;;;;;;;;;4135794;34;20446;-63
2022/03/30 15:16:31;;;;;;;7.12;5.75;;;;;;;;;;4135932;34;21046;-63